Time;durP1;ratioP1;P1;durP2;ratioP2;P2;SDS_P1;SDS_P2;PMS_P1;PMS_P2;Temp;Humidity;BMP_temperature;BMP_pressure;BME280_temperature;BME280_humidity;BME280_pressure;Samples;Min_cycle;Max_cycle;Signal;HPM_P1;HPM_P2
2023/09/28 00:01:13;;;;;;;10.50;8.45;;;;;;;;;;5050466;28;20052;-67
2023/09/28 00:03:39;;;;;;;11.52;9.05;;;;;;;;;;5032388;28;20073;-67
2023/09/28 00:06:05;;;;;;;10.40;7.65;;;;;;;;;;5031820;28;20124;-67
2023/09/28 00:08:32;;;;;;;12.20;8.63;;;;;;;;;;5050470;28;20041;-67
2023/09/28 00:10:59;;;;;;;11.88;8.48;;;;;;;;;;5050427;28;20123;-67
2023/09/28 00:13:25;;;;;;;10.23;8.77;;;;;;;;;;5050097;28;20045;-67
2023/09/28 00:15:51;;;;;;;10.85;8.00;;;;;;;;;;5050146;28;20052;-67
2023/09/28 00:18:17;;;;;;;14.48;8.45;;;;;;;;;;5031614;28;20088;-67
2023/09/28 00:20:43;;;;;;;11.63;8.60;;;;;;;;;;5029933;28;20041;-67
2023/09/28 00:23:10;;;;;;;10.38;9.30;;;;;;;;;;5030274;28;20045;-67
2023/09/28 00:25:36;;;;;;;11.30;8.40;;;;;;;;;;5018857;28;20040;-67
2023/09/28 00:28:02;;;;;;;12.68;8.45;;;;;;;;;;5031746;28;20055;-67
2023/09/28 00:30:28;;;;;;;10.40;7.85;;;;;;;;;;5050008;28;20048;-67
2023/09/28 00:32:54;;;;;;;10.45;8.93;;;;;;;;;;5050119;28;20121;-67
2023/09/28 00:35:21;;;;;;;14.10;9.20;;;;;;;;;;5048591;28;20051;-67
2023/09/28 00:37:48;;;;;;;11.23;8.95;;;;;;;;;;5049943;28;20091;-67
2023/09/28 00:40:27;;;;;;;10.02;8.93;;;;;;;;;;5050167;28;20403;-67
2023/09/28 00:42:54;;;;;;;9.38;8.27;;;;;;;;;;5049439;28;20083;-67
2023/09/28 00:45:21;;;;;;;11.55;9.15;;;;;;;;;;5049819;28;20059;-67
2023/09/28 00:47:48;;;;;;;11.82;8.77;;;;;;;;;;5049838;28;20435;-67
2023/09/28 00:50:15;;;;;;;10.80;8.68;;;;;;;;;;5031569;28;20098;-67
2023/09/28 00:52:46;;;;;;;9.63;8.40;;;;;;;;;;5049620;28;20495;-67
2023/09/28 00:55:14;;;;;;;12.10;8.27;;;;;;;;;;5049521;28;20037;-67
2023/09/28 00:57:42;;;;;;;9.50;8.50;;;;;;;;;;5049425;28;20224;-67
2023/09/28 01:00:31;;;;;;;10.30;8.40;;;;;;;;;;5049561;28;20063;-67
2023/09/28 01:03:00;;;;;;;10.88;7.95;;;;;;;;;;5049704;28;20052;-67
2023/09/28 01:05:33;;;;;;;10.95;7.03;;;;;;;;;;5049219;28;20425;-67
2023/09/28 01:08:12;;;;;;;9.05;6.63;;;;;;;;;;5049510;28;20052;-67
2023/09/28 01:10:40;;;;;;;9.05;6.90;;;;;;;;;;5049505;28;20547;-67
2023/09/28 01:13:12;;;;;;;10.45;6.38;;;;;;;;;;5049141;28;20045;-67
2023/09/28 01:15:42;;;;;;;9.98;6.97;;;;;;;;;;5049068;28;20067;-67
2023/09/28 01:18:12;;;;;;;8.05;6.38;;;;;;;;;;5031780;28;20050;-67
2023/09/28 01:20:39;;;;;;;9.02;6.75;;;;;;;;;;5028908;28;20045;-67
2023/09/28 01:23:05;;;;;;;9.73;7.05;;;;;;;;;;5029594;28;20037;-67
2023/09/28 01:25:34;;;;;;;9.85;6.13;;;;;;;;;;5035381;28;20111;-67
2023/09/28 01:28:00;;;;;;;9.10;6.80;;;;;;;;;;5030894;28;20131;-67
2023/09/28 01:30:27;;;;;;;8.55;6.00;;;;;;;;;;5049230;28;20101;-67
2023/09/28 01:32:53;;;;;;;8.55;5.82;;;;;;;;;;5049346;28;20041;-67
2023/09/28 01:35:20;;;;;;;8.25;6.22;;;;;;;;;;5048773;28;20495;-67
2023/09/28 01:38:04;;;;;;;7.35;5.80;;;;;;;;;;5049207;28;20037;-67
2023/09/28 01:40:30;;;;;;;7.72;5.65;;;;;;;;;;5049295;28;20045;-67
2023/09/28 01:42:56;;;;;;;8.95;5.93;;;;;;;;;;5048887;28;20037;-67
2023/09/28 01:45:23;;;;;;;12.10;5.72;;;;;;;;;;5050300;28;20116;-67
2023/09/28 01:47:49;;;;;;;8.77;6.20;;;;;;;;;;5053243;28;20037;-67
2023/09/28 01:50:15;;;;;;;9.45;5.40;;;;;;;;;;5034494;28;20499;-67
2023/09/28 01:52:41;;;;;;;8.60;5.70;;;;;;;;;;5053086;28;20045;-67
2023/09/28 01:55:07;;;;;;;6.95;5.43;;;;;;;;;;5052974;28;20120;-67
2023/09/28 01:57:33;;;;;;;8.05;5.75;;;;;;;;;;5052486;28;20041;-67
2023/09/28 02:00:00;;;;;;;6.85;5.90;;;;;;;;;;5052993;28;20059;-67
2023/09/28 02:02:26;;;;;;;6.93;5.53;;;;;;;;;;5052916;28;20551;-67
2023/09/28 02:04:52;;;;;;;8.20;6.15;;;;;;;;;;5052377;28;20120;-67
2023/09/28 02:07:18;;;;;;;8.27;5.60;;;;;;;;;;5052874;28;20082;-67
2023/09/28 02:09:44;;;;;;;6.72;5.20;;;;;;;;;;5052755;28;20116;-67
2023/09/28 02:12:12;;;;;;;9.65;5.95;;;;;;;;;;5052547;28;20075;-67
2023/09/28 02:14:38;;;;;;;7.97;6.20;;;;;;;;;;5052820;28;20059;-67
2023/09/28 02:17:04;;;;;;;9.57;5.65;;;;;;;;;;5043729;28;20487;-67
2023/09/28 02:19:30;;;;;;;8.90;5.72;;;;;;;;;;5032272;28;20048;-67
2023/09/28 02:21:56;;;;;;;10.13;5.50;;;;;;;;;;5032672;28;20164;-67
2023/09/28 02:24:22;;;;;;;7.07;5.25;;;;;;;;;;5032545;28;20195;-67
2023/09/28 02:26:51;;;;;;;9.90;6.20;;;;;;;;;;5048378;28;20063;-67
2023/09/28 02:29:17;;;;;;;16.25;5.80;;;;;;;;;;5052292;28;20076;-67
2023/09/28 02:31:43;;;;;;;8.73;5.63;;;;;;;;;;5052293;28;20049;-67
2023/09/28 02:34:09;;;;;;;10.70;5.80;;;;;;;;;;5052077;28;20389;-67
2023/09/28 02:36:35;;;;;;;7.65;5.25;;;;;;;;;;5052124;28;20480;-67
2023/09/28 02:39:05;;;;;;;10.13;5.30;;;;;;;;;;5052048;28;20041;-67
2023/09/28 02:41:31;;;;;;;6.90;5.03;;;;;;;;;;5033743;28;20051;-67
2023/09/28 02:43:57;;;;;;;9.10;5.72;;;;;;;;;;5052442;28;20080;-67
2023/09/28 02:46:25;;;;;;;8.30;5.90;;;;;;;;;;5052158;28;20426;-67
2023/09/28 02:48:51;;;;;;;7.18;5.43;;;;;;;;;;5051636;28;20056;-67
2023/09/28 02:51:17;;;;;;;7.75;5.85;;;;;;;;;;5051782;28;20617;-67
2023/09/28 02:53:44;;;;;;;7.55;5.68;;;;;;;;;;5051649;28;20052;-67
2023/09/28 02:56:10;;;;;;;9.55;6.25;;;;;;;;;;5051200;28;20078;-67
2023/09/28 02:58:36;;;;;;;7.13;5.70;;;;;;;;;;5050917;28;20037;-67
2023/09/28 03:01:02;;;;;;;6.88;5.28;;;;;;;;;;5051845;28;20348;-67
2023/09/28 03:03:28;;;;;;;8.82;5.95;;;;;;;;;;5051452;28;20040;-67
2023/09/28 03:05:55;;;;;;;8.23;6.10;;;;;;;;;;5051610;28;20459;-67
2023/09/28 03:08:21;;;;;;;6.60;5.75;;;;;;;;;;5051914;28;20063;-67
2023/09/28 03:10:47;;;;;;;6.85;5.68;;;;;;;;;;5051223;28;20415;-67
2023/09/28 03:13:13;;;;;;;10.30;6.75;;;;;;;;;;5051500;28;20055;-67
2023/09/28 03:15:41;;;;;;;9.43;6.78;;;;;;;;;;5051404;28;20072;-67
2023/09/28 03:18:07;;;;;;;7.85;6.72;;;;;;;;;;5033525;28;20488;-67
2023/09/28 03:20:33;;;;;;;11.45;6.57;;;;;;;;;;5013520;28;20038;-67
2023/09/28 03:23:00;;;;;;;13.55;6.82;;;;;;;;;;5031370;28;20049;-67
2023/09/28 03:25:26;;;;;;;10.10;6.63;;;;;;;;;;5035683;28;20033;-67
2023/09/28 03:27:52;;;;;;;10.88;7.07;;;;;;;;;;5051579;28;20045;-67
2023/09/28 03:30:19;;;;;;;10.43;7.25;;;;;;;;;;5051170;28;20040;-67
2023/09/28 03:32:48;;;;;;;14.18;7.68;;;;;;;;;;5050839;28;20098;-67
2023/09/28 03:35:16;;;;;;;9.65;7.18;;;;;;;;;;5050953;28;20410;-67
2023/09/28 03:37:42;;;;;;;9.90;6.47;;;;;;;;;;5051035;28;20116;-67
2023/09/28 03:40:12;;;;;;;9.25;7.20;;;;;;;;;;5050743;28;20045;-67
2023/09/28 03:42:42;;;;;;;10.13;7.05;;;;;;;;;;5051009;28;20036;-67
2023/09/28 03:45:09;;;;;;;9.98;7.30;;;;;;;;;;5050913;28;20491;-67
2023/09/28 03:47:39;;;;;;;8.27;7.03;;;;;;;;;;5050705;28;20071;-67
2023/09/28 03:50:06;;;;;;;9.30;6.80;;;;;;;;;;5032808;28;20036;-67
2023/09/28 03:52:34;;;;;;;9.23;6.75;;;;;;;;;;5050733;28;20464;-67
2023/09/28 03:55:00;;;;;;;10.32;6.70;;;;;;;;;;5050179;28;20094;-67
2023/09/28 03:57:26;;;;;;;9.35;6.82;;;;;;;;;;5050704;28;20037;-67
2023/09/28 03:59:52;;;;;;;10.02;6.60;;;;;;;;;;5050907;28;20506;-67
2023/09/28 04:02:18;;;;;;;7.43;6.38;;;;;;;;;;5050326;28;20032;-67
2023/09/28 04:04:44;;;;;;;8.48;6.30;;;;;;;;;;5050251;28;20037;-67
2023/09/28 04:07:11;;;;;;;7.90;6.43;;;;;;;;;;5050454;28;20123;-67
2023/09/28 04:09:37;;;;;;;13.27;6.90;;;;;;;;;;5049924;28;20265;-67
2023/09/28 04:12:03;;;;;;;8.32;6.40;;;;;;;;;;5050309;28;20041;-67
2023/09/28 04:14:29;;;;;;;8.80;7.28;;;;;;;;;;5050619;28;20043;-67
2023/09/28 04:16:55;;;;;;;10.48;6.50;;;;;;;;;;5042396;28;20033;-67
2023/09/28 04:19:21;;;;;;;9.30;6.55;;;;;;;;;;5030334;28;20423;-67
2023/09/28 04:21:47;;;;;;;8.88;6.53;;;;;;;;;;5030358;28;20037;-67
2023/09/28 04:24:14;;;;;;;11.43;6.88;;;;;;;;;;5029744;28;20046;-67
2023/09/28 04:26:40;;;;;;;10.82;7.32;;;;;;;;;;5045473;28;20107;-67
2023/09/28 04:29:07;;;;;;;9.80;6.80;;;;;;;;;;5050074;28;20144;-67
2023/09/28 04:31:33;;;;;;;11.05;6.82;;;;;;;;;;5049737;28;20041;-67
2023/09/28 04:33:59;;;;;;;8.82;7.15;;;;;;;;;;5050590;28;20041;-67
2023/09/28 04:36:25;;;;;;;11.63;7.32;;;;;;;;;;5051371;28;20048;-67
2023/09/28 04:38:51;;;;;;;10.38;7.00;;;;;;;;;;5050735;28;20095;-67
2023/09/28 04:41:18;;;;;;;10.00;6.97;;;;;;;;;;5051280;28;20097;-67
2023/09/28 04:43:44;;;;;;;11.10;7.35;;;;;;;;;;5032379;28;20096;-67
2023/09/28 04:46:10;;;;;;;10.43;8.05;;;;;;;;;;5049790;28;20531;-67
2023/09/28 04:48:36;;;;;;;7.90;6.82;;;;;;;;;;5051167;28;20113;-67
2023/09/28 04:51:03;;;;;;;10.07;7.28;;;;;;;;;;5050210;28;20072;-67
2023/09/28 04:53:29;;;;;;;11.93;7.00;;;;;;;;;;5049890;28;20376;-67
2023/09/28 04:55:57;;;;;;;11.88;6.95;;;;;;;;;;5050141;28;20033;-67
2023/09/28 04:58:23;;;;;;;11.65;7.22;;;;;;;;;;5016377;28;20480;-67
2023/09/28 05:00:49;;;;;;;14.25;7.45;;;;;;;;;;5050311;28;20044;-67
2023/09/28 05:03:15;;;;;;;9.07;6.85;;;;;;;;;;5050542;28;20032;-67
2023/09/28 05:05:41;;;;;;;14.90;7.93;;;;;;;;;;5050418;28;20076;-67
2023/09/28 05:08:07;;;;;;;11.43;8.02;;;;;;;;;;5050175;28;20069;-67
2023/09/28 05:10:33;;;;;;;11.93;6.68;;;;;;;;;;5050683;28;20033;-67
2023/09/28 05:12:59;;;;;;;9.35;7.68;;;;;;;;;;5051005;28;20496;-67
2023/09/28 05:15:25;;;;;;;12.68;6.80;;;;;;;;;;5050203;28;20052;-67
2023/09/28 05:17:51;;;;;;;10.70;7.00;;;;;;;;;;5035665;28;20054;-67
2023/09/28 05:20:17;;;;;;;10.05;7.70;;;;;;;;;;5031801;28;20042;-67
2023/09/28 05:22:43;;;;;;;9.20;7.03;;;;;;;;;;5034367;28;20045;-67
2023/09/28 05:25:09;;;;;;;12.93;6.97;;;;;;;;;;5037323;28;20130;-67
2023/09/28 05:27:36;;;;;;;10.93;7.10;;;;;;;;;;5055079;28;20090;-67
2023/09/28 05:30:03;;;;;;;12.48;7.80;;;;;;;;;;5054412;28;20045;-67
2023/09/28 05:32:29;;;;;;;12.77;7.07;;;;;;;;;;5037190;28;20040;-67
2023/09/28 05:34:55;;;;;;;11.05;7.45;;;;;;;;;;5054383;28;20094;-67
2023/09/28 05:37:21;;;;;;;10.82;7.75;;;;;;;;;;5054517;28;20055;-67
2023/09/28 05:39:47;;;;;;;12.75;7.55;;;;;;;;;;5054125;28;20072;-67
2023/09/28 05:42:13;;;;;;;12.68;7.57;;;;;;;;;;5054557;28;20448;-67
2023/09/28 05:44:40;;;;;;;11.13;7.30;;;;;;;;;;5054739;28;20037;-67
2023/09/28 05:47:06;;;;;;;13.75;7.93;;;;;;;;;;5054263;28;20127;-67
2023/09/28 05:49:32;;;;;;;11.93;7.10;;;;;;;;;;5054402;28;20040;-67
2023/09/28 05:51:58;;;;;;;9.45;6.60;;;;;;;;;;5054256;28;20063;-67
2023/09/28 05:54:26;;;;;;;12.25;6.65;;;;;;;;;;5054109;28;20072;-67
2023/09/28 05:56:52;;;;;;;8.77;6.30;;;;;;;;;;5054265;28;20045;-67
2023/09/28 05:59:18;;;;;;;11.60;6.55;;;;;;;;;;5054070;28;20757;-67
2023/09/28 06:01:44;;;;;;;17.13;6.50;;;;;;;;;;5053660;28;20041;-67
2023/09/28 06:04:12;;;;;;;13.00;6.15;;;;;;;;;;5053982;28;20077;-67
2023/09/28 06:06:38;;;;;;;16.85;6.25;;;;;;;;;;5054081;28;20041;-67
2023/09/28 06:09:04;;;;;;;13.20;5.97;;;;;;;;;;5053876;28;20534;-67
2023/09/28 06:11:30;;;;;;;12.63;5.88;;;;;;;;;;5054424;28;20052;-67
2023/09/28 06:13:56;;;;;;;12.45;5.40;;;;;;;;;;5036043;28;20045;-67
2023/09/28 06:16:25;;;;;;;12.20;4.70;;;;;;;;;;5050359;28;20068;-67
2023/09/28 06:18:52;;;;;;;17.20;5.85;;;;;;;;;;5032844;28;20424;-67
2023/09/28 06:21:18;;;;;;;13.90;5.35;;;;;;;;;;5031794;28;20045;-63
2023/09/28 06:23:44;;;;;;;15.85;5.57;;;;;;;;;;5056537;28;20036;-63
2023/09/28 06:26:10;;;;;;;14.68;5.30;;;;;;;;;;5062485;28;20652;-63
2023/09/28 06:28:36;;;;;;;12.02;5.03;;;;;;;;;;5063937;28;20055;-63
2023/09/28 06:31:02;;;;;;;15.25;5.20;;;;;;;;;;5072920;28;20481;-63
2023/09/28 06:33:28;;;;;;;17.08;5.20;;;;;;;;;;5072250;28;20040;-63
2023/09/28 06:35:54;;;;;;;14.10;4.82;;;;;;;;;;5073247;28;20390;-63
2023/09/28 06:38:20;;;;;;;17.55;4.97;;;;;;;;;;5073138;28;20137;-63
2023/09/28 06:40:48;;;;;;;15.13;5.10;;;;;;;;;;5073086;28;20586;-63
2023/09/28 06:43:15;;;;;;;21.25;5.13;;;;;;;;;;5073399;28;20048;-63
2023/09/28 06:45:41;;;;;;;17.15;4.90;;;;;;;;;;5062666;28;20036;-63
2023/09/28 06:48:07;;;;;;;15.68;5.25;;;;;;;;;;5058448;28;20099;-63
2023/09/28 06:50:34;;;;;;;18.02;5.07;;;;;;;;;;5072418;28;20051;-63
2023/09/28 06:53:02;;;;;;;16.08;4.88;;;;;;;;;;5072415;28;20040;-63
2023/09/28 06:55:28;;;;;;;17.40;4.72;;;;;;;;;;5072981;28;20040;-64
2023/09/28 06:57:54;;;;;;;16.92;4.40;;;;;;;;;;5073142;28;20140;-64
2023/09/28 07:00:20;;;;;;;19.98;5.63;;;;;;;;;;5072226;28;20379;-63
2023/09/28 07:02:47;;;;;;;20.35;5.03;;;;;;;;;;5055076;28;20094;-63
2023/09/28 07:05:14;;;;;;;17.55;4.30;;;;;;;;;;5072488;28;20037;-63
2023/09/28 07:07:41;;;;;;;25.83;4.95;;;;;;;;;;5072427;28;20036;-63
2023/09/28 07:10:10;;;;;;;18.50;5.53;;;;;;;;;;5072928;28;20090;-64
2023/09/28 07:12:36;;;;;;;18.58;4.80;;;;;;;;;;5072685;28;20554;-64
2023/09/28 07:15:03;;;;;;;19.27;5.00;;;;;;;;;;5072424;28;20032;-64
2023/09/28 07:17:29;;;;;;;30.52;6.43;;;;;;;;;;5060210;28;20045;-64
2023/09/28 07:19:56;;;;;;;25.58;4.35;;;;;;;;;;5055223;28;20665;-64
2023/09/28 07:22:23;;;;;;;20.80;5.05;;;;;;;;;;5072186;28;20456;-64
2023/09/28 07:24:49;;;;;;;25.52;5.00;;;;;;;;;;5072294;28;20098;-64
2023/09/28 07:27:16;;;;;;;24.10;4.60;;;;;;;;;;5032649;28;20049;-64
2023/09/28 07:29:42;;;;;;;24.45;4.88;;;;;;;;;;5066529;28;20044;-64
2023/09/28 07:32:08;;;;;;;21.98;5.82;;;;;;;;;;5072265;28;20052;-63
2023/09/28 07:34:34;;;;;;;22.63;4.80;;;;;;;;;;5072326;28;20058;-63
2023/09/28 07:37:01;;;;;;;24.42;5.05;;;;;;;;;;5071772;28;20364;-64
2023/09/28 07:39:27;;;;;;;22.85;5.00;;;;;;;;;;5072315;28;20051;-64
2023/09/28 07:41:53;;;;;;;31.73;5.53;;;;;;;;;;5072008;28;20036;-64
2023/09/28 07:44:19;;;;;;;27.95;5.22;;;;;;;;;;5071059;28;20036;-64
2023/09/28 07:46:46;;;;;;;20.30;5.18;;;;;;;;;;5072229;28;20123;-65
2023/09/28 07:49:14;;;;;;;26.52;5.10;;;;;;;;;;5071816;28;20051;-64
2023/09/28 07:51:40;;;;;;;24.17;5.05;;;;;;;;;;5071089;28;20052;-64
2023/09/28 07:54:07;;;;;;;24.98;4.82;;;;;;;;;;5071805;28;20044;-63
2023/09/28 07:56:33;;;;;;;35.33;5.47;;;;;;;;;;5071699;28;20094;-62
2023/09/28 07:59:00;;;;;;;20.98;5.10;;;;;;;;;;5068461;28;20036;-62
2023/09/28 08:01:26;;;;;;;22.27;4.47;;;;;;;;;;5064405;28;20090;-63
2023/09/28 08:03:53;;;;;;;31.45;5.38;;;;;;;;;;5069139;28;20468;-63
2023/09/28 08:06:20;;;;;;;28.85;5.20;;;;;;;;;;5038837;28;20069;-63
2023/09/28 08:08:47;;;;;;;26.10;4.47;;;;;;;;;;5048362;28;20529;-63
2023/09/28 08:11:14;;;;;;;29.40;5.43;;;;;;;;;;5071579;28;20140;-63
2023/09/28 08:13:40;;;;;;;25.48;4.68;;;;;;;;;;5070889;28;20047;-63
2023/09/28 08:16:06;;;;;;;24.98;4.65;;;;;;;;;;5071154;28;20132;-64
2023/09/28 08:18:32;;;;;;;21.08;4.55;;;;;;;;;;5071565;28;20070;-64
2023/09/28 08:20:58;;;;;;;25.20;4.57;;;;;;;;;;5070956;28;20062;-64
2023/09/28 08:23:26;;;;;;;21.20;4.60;;;;;;;;;;5071391;28;20559;-64
2023/09/28 08:25:52;;;;;;;25.00;4.78;;;;;;;;;;5062493;28;20044;-63
2023/09/28 08:28:18;;;;;;;23.50;4.60;;;;;;;;;;5060344;28;20079;-64
2023/09/28 08:30:44;;;;;;;22.48;4.70;;;;;;;;;;5071226;28;20170;-63
2023/09/28 08:33:10;;;;;;;22.25;4.65;;;;;;;;;;5058359;28;20043;-63
2023/09/28 08:35:36;;;;;;;21.13;4.35;;;;;;;;;;5056095;28;20485;-63
2023/09/28 08:38:03;;;;;;;23.63;5.45;;;;;;;;;;5070747;28;20040;-63
2023/09/28 08:40:30;;;;;;;27.15;4.95;;;;;;;;;;5070667;28;20044;-63
2023/09/28 08:42:58;;;;;;;21.95;4.10;;;;;;;;;;5070464;28;20032;-64
2023/09/28 08:45:25;;;;;;;29.80;5.75;;;;;;;;;;5055831;28;20095;-64
2023/09/28 08:47:52;;;;;;;22.55;4.13;;;;;;;;;;5070683;28;20037;-63
2023/09/28 08:50:28;;;;;;;18.98;4.40;;;;;;;;;;5070212;28;20702;-63
2023/09/28 08:52:55;;;;;;;24.40;4.57;;;;;;;;;;5070292;28;20110;-63
2023/09/28 08:55:21;;;;;;;30.35;5.63;;;;;;;;;;5069236;28;20052;-63
2023/09/28 08:57:48;;;;;;;26.02;5.65;;;;;;;;;;5069834;28;20491;-63
2023/09/28 09:00:14;;;;;;;21.63;4.68;;;;;;;;;;5070422;28;20044;-63
2023/09/28 09:02:43;;;;;;;23.42;4.88;;;;;;;;;;5070521;28;20036;-65
2023/09/28 09:05:12;;;;;;;24.80;5.40;;;;;;;;;;5069987;28;20431;-65
2023/09/28 09:07:39;;;;;;;25.10;5.72;;;;;;;;;;5070193;28;20051;-64
2023/09/28 09:10:06;;;;;;;24.02;5.68;;;;;;;;;;5070582;28;20093;-64
2023/09/28 09:12:34;;;;;;;26.58;4.97;;;;;;;;;;5069666;28;20041;-64
2023/09/28 09:15:00;;;;;;;26.60;5.43;;;;;;;;;;5070287;28;20040;-64
2023/09/28 09:17:35;;;;;;;22.00;4.55;;;;;;;;;;5058212;28;20044;-63
2023/09/28 09:20:05;;;;;;;21.08;4.93;;;;;;;;;;5057566;28;20070;-63
2023/09/28 09:22:31;;;;;;;33.95;5.07;;;;;;;;;;5070275;28;20059;-64
2023/09/28 09:24:58;;;;;;;24.15;4.15;;;;;;;;;;5059457;28;20568;-63
2023/09/28 09:27:28;;;;;;;24.10;4.28;;;;;;;;;;5052244;28;20040;-64
2023/09/28 09:29:57;;;;;;;24.13;4.82;;;;;;;;;;5070356;28;20125;-64
2023/09/28 09:32:24;;;;;;;24.67;4.18;;;;;;;;;;5068391;28;20059;-64
2023/09/28 09:34:51;;;;;;;30.83;5.07;;;;;;;;;;5049921;28;20073;-64
2023/09/28 09:37:17;;;;;;;25.00;4.72;;;;;;;;;;5067517;28;20102;-64
2023/09/28 09:39:43;;;;;;;20.60;4.60;;;;;;;;;;5069933;28;20451;-64
2023/09/28 09:42:09;;;;;;;29.52;4.28;;;;;;;;;;5069965;28;20090;-64
2023/09/28 09:44:35;;;;;;;21.80;4.57;;;;;;;;;;5069728;28;20040;-64
2023/09/28 09:47:02;;;;;;;24.67;3.72;;;;;;;;;;5070316;28;20048;-64
2023/09/28 09:49:28;;;;;;;21.77;4.28;;;;;;;;;;5069269;28;20051;-64
2023/09/28 09:51:54;;;;;;;20.33;3.90;;;;;;;;;;5069869;28;20406;-64
2023/09/28 09:54:21;;;;;;;24.98;4.15;;;;;;;;;;5069751;28;20618;-64
2023/09/28 09:56:50;;;;;;;25.98;5.18;;;;;;;;;;5069070;28;20051;-64
2023/09/28 09:59:17;;;;;;;21.40;4.45;;;;;;;;;;5069543;28;20090;-64
2023/09/28 10:01:53;;;;;;;24.75;4.78;;;;;;;;;;5063304;28;20048;-64
2023/09/28 10:04:21;;;;;;;21.15;4.05;;;;;;;;;;5069020;28;20067;-65
2023/09/28 10:06:48;;;;;;;28.40;4.82;;;;;;;;;;5071553;28;20047;-64
2023/09/28 10:09:17;;;;;;;22.55;3.83;;;;;;;;;;5069418;28;20040;-64
2023/09/28 10:11:46;;;;;;;27.88;5.25;;;;;;;;;;5043331;28;20044;-64
2023/09/28 10:14:12;;;;;;;17.77;3.90;;;;;;;;;;5039313;28;20116;-63
2023/09/28 10:16:39;;;;;;;25.00;3.97;;;;;;;;;;5046484;28;20044;-63
2023/09/28 10:19:06;;;;;;;20.95;3.88;;;;;;;;;;5043718;28;20534;-64
2023/09/28 10:21:39;;;;;;;27.52;4.18;;;;;;;;;;5051115;28;20041;-64
2023/09/28 10:24:12;;;;;;;15.85;3.38;;;;;;;;;;5045661;28;20045;-63
2023/09/28 10:26:38;;;;;;;23.92;4.10;;;;;;;;;;5042287;28;20033;-63
2023/09/28 10:29:08;;;;;;;21.52;3.90;;;;;;;;;;5058385;28;20089;-64
2023/09/28 10:31:39;;;;;;;25.90;3.75;;;;;;;;;;5016179;28;20044;-63
2023/09/28 10:34:06;;;;;;;17.75;3.83;;;;;;;;;;5067508;28;20040;-63
2023/09/28 10:36:32;;;;;;;20.38;4.28;;;;;;;;;;5071419;28;20041;-63
2023/09/28 10:39:14;;;;;;;25.17;4.72;;;;;;;;;;5072181;28;20071;-63
2023/09/28 10:42:03;;;;;;;19.65;3.72;;;;;;;;;;5071130;28;20075;-63
2023/09/28 10:44:31;;;;;;;16.00;2.95;;;;;;;;;;5062402;28;20040;-62
2023/09/28 10:46:58;;;;;;;15.75;3.25;;;;;;;;;;5033333;28;20121;-63
2023/09/28 10:49:25;;;;;;;22.23;3.90;;;;;;;;;;5043630;28;20048;-63
2023/09/28 10:51:52;;;;;;;20.77;3.72;;;;;;;;;;5033993;28;20080;-64
2023/09/28 10:54:18;;;;;;;24.65;3.92;;;;;;;;;;5051683;28;20053;-63
2023/09/28 10:56:48;;;;;;;18.73;3.63;;;;;;;;;;5052399;28;20044;-64
2023/09/28 10:59:15;;;;;;;21.92;3.88;;;;;;;;;;5052496;28;20045;-64
2023/09/28 11:01:41;;;;;;;23.50;3.42;;;;;;;;;;5052665;28;20040;-64
2023/09/28 11:04:08;;;;;;;24.65;4.45;;;;;;;;;;5052293;28;20103;-63
2023/09/28 11:06:35;;;;;;;24.63;3.47;;;;;;;;;;5052412;28;20040;-63
2023/09/28 11:09:01;;;;;;;21.23;3.53;;;;;;;;;;5052793;28;20422;-63
2023/09/28 11:11:28;;;;;;;20.15;3.25;;;;;;;;;;5049475;28;20099;-63
2023/09/28 11:14:00;;;;;;;22.05;3.38;;;;;;;;;;5064632;28;20041;-64
2023/09/28 11:16:27;;;;;;;19.65;4.45;;;;;;;;;;5068740;28;20123;-64
2023/09/28 11:18:54;;;;;;;25.42;4.07;;;;;;;;;;5071692;28;20043;-62
2023/09/28 11:21:20;;;;;;;24.33;4.35;;;;;;;;;;5072326;28;20039;-64
2023/09/28 11:23:47;;;;;;;25.92;4.03;;;;;;;;;;5072354;28;20123;-63
2023/09/28 11:26:14;;;;;;;19.92;3.55;;;;;;;;;;5064080;28;20093;-63
2023/09/28 11:28:40;;;;;;;16.75;3.65;;;;;;;;;;5053777;28;20044;-63
2023/09/28 11:31:08;;;;;;;22.35;4.15;;;;;;;;;;5067305;28;20143;-64
2023/09/28 11:33:34;;;;;;;18.25;3.20;;;;;;;;;;5071209;28;20052;-64
2023/09/28 11:36:01;;;;;;;24.45;4.13;;;;;;;;;;5072018;28;20067;-64
2023/09/28 11:38:27;;;;;;;16.60;3.47;;;;;;;;;;5071664;28;20039;-64
2023/09/28 11:40:56;;;;;;;26.65;4.40;;;;;;;;;;5071751;28;20039;-64
2023/09/28 11:43:22;;;;;;;18.85;3.30;;;;;;;;;;5071737;28;20043;-64
2023/09/28 11:45:49;;;;;;;21.60;4.22;;;;;;;;;;5071558;28;20040;-64
2023/09/28 11:48:22;;;;;;;23.30;4.57;;;;;;;;;;5071573;28;20398;-64
2023/09/28 11:50:49;;;;;;;20.63;4.00;;;;;;;;;;5071208;28;20140;-64
2023/09/28 11:53:15;;;;;;;18.10;4.50;;;;;;;;;;5071530;28;20053;-64
2023/09/28 11:55:41;;;;;;;20.75;3.40;;;;;;;;;;5070890;28;20040;-64
2023/09/28 11:58:11;;;;;;;21.05;3.90;;;;;;;;;;5071347;28;20048;-64
2023/09/28 12:00:37;;;;;;;26.83;3.78;;;;;;;;;;5070890;28;20059;-63
2023/09/28 12:03:04;;;;;;;24.13;4.50;;;;;;;;;;5071217;28;20036;-63
2023/09/28 12:05:31;;;;;;;16.73;4.03;;;;;;;;;;5071101;28;20055;-63
2023/09/28 12:07:57;;;;;;;20.65;4.32;;;;;;;;;;5070836;28;20479;-63
2023/09/28 12:10:23;;;;;;;20.70;4.00;;;;;;;;;;5070421;28;20044;-63
2023/09/28 12:12:49;;;;;;;25.92;4.60;;;;;;;;;;5070960;28;20044;-64
2023/09/28 12:15:16;;;;;;;24.77;4.00;;;;;;;;;;5070943;28;20391;-63
2023/09/28 12:17:43;;;;;;;24.75;3.92;;;;;;;;;;5065487;28;20045;-64
2023/09/28 12:20:12;;;;;;;21.63;3.88;;;;;;;;;;5070994;28;20045;-64
2023/09/28 12:22:39;;;;;;;21.55;4.43;;;;;;;;;;5061262;28;20036;-64
2023/09/28 12:25:05;;;;;;;21.88;3.72;;;;;;;;;;5068227;28;20086;-64
2023/09/28 12:27:32;;;;;;;18.90;3.45;;;;;;;;;;5063430;28;20043;-64
2023/09/28 12:29:59;;;;;;;21.25;4.47;;;;;;;;;;5061535;28;20116;-64
2023/09/28 12:32:26;;;;;;;18.70;4.40;;;;;;;;;;5070472;28;20051;-63
2023/09/28 12:34:52;;;;;;;21.80;4.30;;;;;;;;;;5062357;28;20068;-63
2023/09/28 12:37:18;;;;;;;16.90;3.20;;;;;;;;;;5050832;28;20080;-63
2023/09/28 12:39:45;;;;;;;23.10;4.50;;;;;;;;;;5064848;28;20040;-63
2023/09/28 12:42:15;;;;;;;16.58;3.90;;;;;;;;;;5070355;28;20094;-63
2023/09/28 12:44:42;;;;;;;17.75;3.55;;;;;;;;;;5070890;28;20098;-63
2023/09/28 12:47:08;;;;;;;23.65;3.92;;;;;;;;;;5035940;28;20134;-64
2023/09/28 12:49:34;;;;;;;23.17;5.35;;;;;;;;;;5070583;28;20044;-64
2023/09/28 12:52:01;;;;;;;26.65;4.20;;;;;;;;;;5070175;28;20379;-64
2023/09/28 12:54:29;;;;;;;21.83;3.58;;;;;;;;;;5070013;28;20053;-64
2023/09/28 12:56:55;;;;;;;23.50;4.60;;;;;;;;;;5070355;28;20109;-64
2023/09/28 12:59:21;;;;;;;24.05;4.95;;;;;;;;;;5062758;28;20030;-63
2023/09/28 13:01:48;;;;;;;18.67;3.30;;;;;;;;;;5038458;28;20476;-64
2023/09/28 13:04:14;;;;;;;22.80;3.80;;;;;;;;;;5068496;28;20048;-63
2023/09/28 13:06:41;;;;;;;15.20;3.33;;;;;;;;;;5070432;28;20071;-65
2023/09/28 13:09:07;;;;;;;14.85;3.65;;;;;;;;;;5069948;28;20087;-64
2023/09/28 13:11:34;;;;;;;20.90;3.70;;;;;;;;;;5070654;28;20585;-64
2023/09/28 13:14:00;;;;;;;16.35;3.45;;;;;;;;;;5070699;28;20048;-64
2023/09/28 13:16:28;;;;;;;20.20;3.95;;;;;;;;;;5066599;28;20656;-64
2023/09/28 13:18:55;;;;;;;19.30;3.80;;;;;;;;;;5047698;28;20128;-64
2023/09/28 13:21:23;;;;;;;25.08;5.05;;;;;;;;;;5050197;28;20281;-63
2023/09/28 13:23:49;;;;;;;13.65;3.20;;;;;;;;;;5032381;28;20049;-64
2023/09/28 13:26:15;;;;;;;19.63;3.53;;;;;;;;;;5043033;28;20052;-64
2023/09/28 13:28:41;;;;;;;18.73;3.30;;;;;;;;;;5069924;28;20076;-64
2023/09/28 13:31:08;;;;;;;19.95;3.80;;;;;;;;;;5069957;28;20060;-64
2023/09/28 13:33:38;;;;;;;20.88;4.18;;;;;;;;;;5069581;28;20044;-64
2023/09/28 13:36:06;;;;;;;21.65;3.95;;;;;;;;;;5070328;28;20067;-64
2023/09/28 13:38:35;;;;;;;18.88;3.95;;;;;;;;;;5069437;28;20124;-64
2023/09/28 13:41:01;;;;;;;16.15;3.45;;;;;;;;;;5052500;28;20046;-64
2023/09/28 13:43:28;;;;;;;16.77;4.00;;;;;;;;;;5055999;28;20052;-63
2023/09/28 13:45:54;;;;;;;21.20;4.28;;;;;;;;;;5073453;28;20037;-63
2023/09/28 13:48:22;;;;;;;16.30;3.72;;;;;;;;;;5074196;28;20142;-64
2023/09/28 13:50:48;;;;;;;18.65;4.25;;;;;;;;;;5073718;28;20132;-64
2023/09/28 13:53:14;;;;;;;17.83;3.42;;;;;;;;;;5073087;28;20519;-64
2023/09/28 13:55:40;;;;;;;17.70;3.85;;;;;;;;;;5073515;28;20052;-64
2023/09/28 13:58:11;;;;;;;23.48;4.20;;;;;;;;;;5065725;28;20048;-64
2023/09/28 14:00:45;;;;;;;14.43;3.47;;;;;;;;;;5035532;28;20049;-63
2023/09/28 14:03:11;;;;;;;19.33;4.22;;;;;;;;;;5073341;28;20131;-63
2023/09/28 14:05:37;;;;;;;22.55;4.65;;;;;;;;;;5073422;28;20553;-63
2023/09/28 14:08:04;;;;;;;22.35;4.60;;;;;;;;;;5073436;28;20033;-64
2023/09/28 14:10:30;;;;;;;17.77;3.88;;;;;;;;;;5073513;28;20094;-64
2023/09/28 14:12:56;;;;;;;18.27;3.65;;;;;;;;;;5073355;28;20040;-64
2023/09/28 14:15:22;;;;;;;21.27;4.82;;;;;;;;;;5072873;28;20513;-64
2023/09/28 14:17:49;;;;;;;15.68;3.55;;;;;;;;;;5045112;28;20068;-64
2023/09/28 14:20:15;;;;;;;22.40;4.35;;;;;;;;;;5053486;28;20041;-64
2023/09/28 14:22:46;;;;;;;19.65;4.35;;;;;;;;;;5069451;28;20095;-63
2023/09/28 14:25:12;;;;;;;21.08;4.30;;;;;;;;;;5070646;28;20063;-64
2023/09/28 14:27:39;;;;;;;20.85;5.80;;;;;;;;;;5073120;28;20051;-64
2023/09/28 14:30:09;;;;;;;20.17;4.88;;;;;;;;;;5066094;28;20071;-64
2023/09/28 14:32:39;;;;;;;19.70;3.92;;;;;;;;;;5052802;28;20037;-63